sensor_id;sensor_type;location;lat;lon;timestamp;P1;durP1;ratioP1;P2;durP2;ratioP2
15996;SDS011;8103;51.340;12.326;2023-02-21T00:00:13;6.25;;;3.20;;
15996;SDS011;8103;51.340;12.326;2023-02-21T00:03:00;3.90;;;3.50;;
15996;SDS011;8103;51.340;12.326;2023-02-21T00:05:46;4.35;;;3.47;;
15996;SDS011;8103;51.340;12.326;2023-02-21T00:08:31;5.68;;;3.55;;
15996;SDS011;8103;51.340;12.326;2023-02-21T00:11:17;5.53;;;3.35;;
15996;SDS011;8103;51.340;12.326;2023-02-21T00:14:02;4.50;;;3.50;;
15996;SDS011;8103;51.340;12.326;2023-02-21T00:16:48;5.60;;;3.45;;
15996;SDS011;8103;51.340;12.326;2023-02-21T00:19:34;5.20;;;4.40;;
15996;SDS011;8103;51.340;12.326;2023-02-21T00:22:19;4.43;;;3.50;;
15996;SDS011;8103;51.340;12.326;2023-02-21T00:25:05;6.25;;;2.92;;
15996;SDS011;8103;51.340;12.326;2023-02-21T00:27:51;5.57;;;3.58;;
15996;SDS011;8103;51.340;12.326;2023-02-21T00:30:36;5.03;;;3.88;;
15996;SDS011;8103;51.340;12.326;2023-02-21T00:33:23;5.00;;;3.80;;
15996;SDS011;8103;51.340;12.326;2023-02-21T00:36:08;5.40;;;3.67;;
15996;SDS011;8103;51.340;12.326;2023-02-21T00:39:00;4.80;;;4.18;;
15996;SDS011;8103;51.340;12.326;2023-02-21T00:41:46;4.38;;;3.38;;
15996;SDS011;8103;51.340;12.326;2023-02-21T00:44:31;7.72;;;4.10;;
15996;SDS011;8103;51.340;12.326;2023-02-21T00:47:17;5.03;;;3.47;;
15996;SDS011;8103;51.340;12.326;2023-02-21T00:50:03;4.50;;;3.80;;
15996;SDS011;8103;51.340;12.326;2023-02-21T00:52:50;4.70;;;3.72;;
15996;SDS011;8103;51.340;12.326;2023-02-21T00:55:35;4.78;;;3.00;;
15996;SDS011;8103;51.340;12.326;2023-02-21T00:58:21;5.40;;;3.47;;
15996;SDS011;8103;51.340;12.326;2023-02-21T01:01:06;4.25;;;3.28;;
15996;SDS011;8103;51.340;12.326;2023-02-21T01:03:54;7.57;;;3.90;;
15996;SDS011;8103;51.340;12.326;2023-02-21T01:06:43;3.70;;;2.95;;
15996;SDS011;8103;51.340;12.326;2023-02-21T01:09:29;3.97;;;3.28;;
15996;SDS011;8103;51.340;12.326;2023-02-21T01:12:14;6.05;;;3.42;;
15996;SDS011;8103;51.340;12.326;2023-02-21T01:14:59;5.97;;;4.75;;
15996;SDS011;8103;51.340;12.326;2023-02-21T01:17:45;3.92;;;3.53;;
15996;SDS011;8103;51.340;12.326;2023-02-21T01:20:30;8.80;;;3.83;;
15996;SDS011;8103;51.340;12.326;2023-02-21T01:23:16;5.97;;;3.92;;
15996;SDS011;8103;51.340;12.326;2023-02-21T01:26:02;5.13;;;3.42;;
15996;SDS011;8103;51.340;12.326;2023-02-21T01:28:51;4.43;;;3.50;;
15996;SDS011;8103;51.340;12.326;2023-02-21T01:31:36;6.22;;;3.13;;
15996;SDS011;8103;51.340;12.326;2023-02-21T01:34:22;5.88;;;3.67;;
15996;SDS011;8103;51.340;12.326;2023-02-21T01:37:08;3.63;;;3.13;;
15996;SDS011;8103;51.340;12.326;2023-02-21T01:39:54;6.35;;;4.68;;
15996;SDS011;8103;51.340;12.326;2023-02-21T01:42:39;5.80;;;4.07;;
15996;SDS011;8103;51.340;12.326;2023-02-21T01:48:28;6.72;;;3.33;;
15996;SDS011;8103;51.340;12.326;2023-02-21T01:51:20;4.07;;;3.17;;
15996;SDS011;8103;51.340;12.326;2023-02-21T01:54:12;6.57;;;3.92;;
15996;SDS011;8103;51.340;12.326;2023-02-21T01:56:59;4.65;;;3.08;;
15996;SDS011;8103;51.340;12.326;2023-02-21T01:59:48;4.93;;;4.25;;
15996;SDS011;8103;51.340;12.326;2023-02-21T02:02:40;6.28;;;4.32;;
15996;SDS011;8103;51.340;12.326;2023-02-21T02:05:41;6.85;;;3.78;;
15996;SDS011;8103;51.340;12.326;2023-02-21T02:08:36;5.95;;;4.40;;
15996;SDS011;8103;51.340;12.326;2023-02-21T02:11:29;6.20;;;4.30;;
15996;SDS011;8103;51.340;12.326;2023-02-21T02:14:50;4.93;;;4.03;;
15996;SDS011;8103;51.340;12.326;2023-02-21T02:24:29;4.78;;;3.75;;
15996;SDS011;8103;51.340;12.326;2023-02-21T02:28:08;4.97;;;3.97;;
15996;SDS011;8103;51.340;12.326;2023-02-21T02:31:04;7.18;;;4.57;;
15996;SDS011;8103;51.340;12.326;2023-02-21T02:37:06;10.13;;;5.20;;
15996;SDS011;8103;51.340;12.326;2023-02-21T02:43:21;8.02;;;5.03;;
15996;SDS011;8103;51.340;12.326;2023-02-21T02:49:09;6.90;;;4.97;;
15996;SDS011;8103;51.340;12.326;2023-02-21T02:51:47;7.97;;;4.85;;
15996;SDS011;8103;51.340;12.326;2023-02-21T02:54:15;8.73;;;5.78;;
15996;SDS011;8103;51.340;12.326;2023-02-21T02:56:42;10.15;;;4.90;;
15996;SDS011;8103;51.340;12.326;2023-02-21T02:59:12;8.93;;;5.95;;
15996;SDS011;8103;51.340;12.326;2023-02-21T03:01:58;6.97;;;5.05;;
15996;SDS011;8103;51.340;12.326;2023-02-21T03:05:13;8.70;;;5.93;;
15996;SDS011;8103;51.340;12.326;2023-02-21T03:08:44;8.48;;;6.30;;
15996;SDS011;8103;51.340;12.326;2023-02-21T03:11:23;8.43;;;6.20;;
15996;SDS011;8103;51.340;12.326;2023-02-21T03:13:56;8.57;;;6.25;;
15996;SDS011;8103;51.340;12.326;2023-02-21T03:16:48;10.45;;;6.10;;
15996;SDS011;8103;51.340;12.326;2023-02-21T03:19:25;9.30;;;6.30;;
15996;SDS011;8103;51.340;12.326;2023-02-21T03:22:04;10.13;;;6.85;;
15996;SDS011;8103;51.340;12.326;2023-02-21T03:24:42;8.10;;;6.20;;
15996;SDS011;8103;51.340;12.326;2023-02-21T03:27:14;10.10;;;6.80;;
15996;SDS011;8103;51.340;12.326;2023-02-21T03:29:46;10.90;;;7.57;;
15996;SDS011;8103;51.340;12.326;2023-02-21T03:32:25;11.02;;;7.68;;
15996;SDS011;8103;51.340;12.326;2023-02-21T03:34:58;11.20;;;7.45;;
15996;SDS011;8103;51.340;12.326;2023-02-21T03:37:29;11.95;;;7.20;;
15996;SDS011;8103;51.340;12.326;2023-02-21T03:40:12;10.52;;;6.78;;
15996;SDS011;8103;51.340;12.326;2023-02-21T03:42:50;8.98;;;6.95;;
15996;SDS011;8103;51.340;12.326;2023-02-21T03:45:19;10.38;;;7.10;;
15996;SDS011;8103;51.340;12.326;2023-02-21T03:47:47;11.65;;;7.50;;
15996;SDS011;8103;51.340;12.326;2023-02-21T03:50:14;10.50;;;7.13;;
15996;SDS011;8103;51.340;12.326;2023-02-21T03:52:41;9.27;;;7.03;;
15996;SDS011;8103;51.340;12.326;2023-02-21T03:55:07;8.70;;;7.28;;
15996;SDS011;8103;51.340;12.326;2023-02-21T03:57:35;9.63;;;7.43;;
15996;SDS011;8103;51.340;12.326;2023-02-21T04:00:02;9.60;;;7.05;;
15996;SDS011;8103;51.340;12.326;2023-02-21T04:02:29;11.10;;;7.68;;
15996;SDS011;8103;51.340;12.326;2023-02-21T04:04:56;10.02;;;7.40;;
15996;SDS011;8103;51.340;12.326;2023-02-21T04:07:23;11.10;;;7.88;;
15996;SDS011;8103;51.340;12.326;2023-02-21T04:09:50;10.52;;;7.60;;
15996;SDS011;8103;51.340;12.326;2023-02-21T04:12:16;12.15;;;8.35;;
15996;SDS011;8103;51.340;12.326;2023-02-21T04:14:43;11.07;;;7.30;;
15996;SDS011;8103;51.340;12.326;2023-02-21T04:21:17;11.30;;;6.88;;
15996;SDS011;8103;51.340;12.326;2023-02-21T04:23:44;11.27;;;7.50;;
15996;SDS011;8103;51.340;12.326;2023-02-21T04:30:41;8.27;;;6.55;;
15996;SDS011;8103;51.340;12.326;2023-02-21T04:33:08;13.18;;;7.43;;
15996;SDS011;8103;51.340;12.326;2023-02-21T04:35:35;13.95;;;8.05;;
15996;SDS011;8103;51.340;12.326;2023-02-21T04:42:08;9.68;;;7.13;;
15996;SDS011;8103;51.340;12.326;2023-02-21T04:44:35;14.20;;;6.65;;
15996;SDS011;8103;51.340;12.326;2023-02-21T04:47:04;10.95;;;7.57;;
15996;SDS011;8103;51.340;12.326;2023-02-21T04:49:31;12.48;;;7.35;;
15996;SDS011;8103;51.340;12.326;2023-02-21T04:51:57;10.75;;;7.40;;
15996;SDS011;8103;51.340;12.326;2023-02-21T04:54:24;11.98;;;7.22;;
15996;SDS011;8103;51.340;12.326;2023-02-21T04:56:51;11.70;;;7.50;;
15996;SDS011;8103;51.340;12.326;2023-02-21T04:59:18;11.25;;;7.82;;
15996;SDS011;8103;51.340;12.326;2023-02-21T05:01:45;11.52;;;8.13;;
15996;SDS011;8103;51.340;12.326;2023-02-21T05:04:11;13.93;;;8.13;;
15996;SDS011;8103;51.340;12.326;2023-02-21T05:06:38;11.82;;;8.25;;
15996;SDS011;8103;51.340;12.326;2023-02-21T05:09:05;13.32;;;8.48;;
15996;SDS011;8103;51.340;12.326;2023-02-21T05:15:31;12.20;;;7.95;;
15996;SDS011;8103;51.340;12.326;2023-02-21T05:17:58;12.23;;;8.20;;
15996;SDS011;8103;51.340;12.326;2023-02-21T05:20:25;11.35;;;8.07;;
15996;SDS011;8103;51.340;12.326;2023-02-21T05:22:52;14.35;;;8.32;;
15996;SDS011;8103;51.340;12.326;2023-02-21T05:25:21;11.32;;;8.38;;
15996;SDS011;8103;51.340;12.326;2023-02-21T05:27:50;14.15;;;8.85;;
15996;SDS011;8103;51.340;12.326;2023-02-21T05:30:20;14.32;;;9.05;;
15996;SDS011;8103;51.340;12.326;2023-02-21T05:32:49;12.02;;;8.95;;
15996;SDS011;8103;51.340;12.326;2023-02-21T05:35:16;11.18;;;8.07;;
15996;SDS011;8103;51.340;12.326;2023-02-21T05:37:43;12.20;;;8.50;;
15996;SDS011;8103;51.340;12.326;2023-02-21T05:44:16;13.10;;;9.38;;
15996;SDS011;8103;51.340;12.326;2023-02-21T05:46:43;13.50;;;8.80;;
15996;SDS011;8103;51.340;12.326;2023-02-21T05:49:11;13.90;;;9.32;;
15996;SDS011;8103;51.340;12.326;2023-02-21T05:51:40;15.50;;;9.23;;
15996;SDS011;8103;51.340;12.326;2023-02-21T05:54:12;16.98;;;9.85;;
15996;SDS011;8103;51.340;12.326;2023-02-21T05:56:45;12.75;;;9.70;;
15996;SDS011;8103;51.340;12.326;2023-02-21T05:59:14;15.10;;;10.20;;
15996;SDS011;8103;51.340;12.326;2023-02-21T06:01:44;19.95;;;9.43;;
15996;SDS011;8103;51.340;12.326;2023-02-21T06:04:12;18.85;;;10.02;;
15996;SDS011;8103;51.340;12.326;2023-02-21T06:06:40;11.77;;;8.88;;
15996;SDS011;8103;51.340;12.326;2023-02-21T06:09:07;16.13;;;10.20;;
15996;SDS011;8103;51.340;12.326;2023-02-21T06:11:36;14.23;;;8.77;;
15996;SDS011;8103;51.340;12.326;2023-02-21T06:14:06;11.95;;;8.95;;
15996;SDS011;8103;51.340;12.326;2023-02-21T06:16:40;14.85;;;9.55;;
15996;SDS011;8103;51.340;12.326;2023-02-21T06:19:07;15.77;;;10.10;;
15996;SDS011;8103;51.340;12.326;2023-02-21T06:21:35;15.50;;;9.32;;
15996;SDS011;8103;51.340;12.326;2023-02-21T06:24:02;16.27;;;10.13;;
15996;SDS011;8103;51.340;12.326;2023-02-21T06:26:29;12.90;;;9.65;;
15996;SDS011;8103;51.340;12.326;2023-02-21T06:28:56;14.63;;;10.20;;
15996;SDS011;8103;51.340;12.326;2023-02-21T06:31:23;12.85;;;9.13;;
15996;SDS011;8103;51.340;12.326;2023-02-21T06:33:50;15.18;;;10.13;;
15996;SDS011;8103;51.340;12.326;2023-02-21T06:36:18;12.55;;;9.05;;
15996;SDS011;8103;51.340;12.326;2023-02-21T06:38:50;13.65;;;8.60;;
15996;SDS011;8103;51.340;12.326;2023-02-21T06:41:21;18.52;;;9.95;;
15996;SDS011;8103;51.340;12.326;2023-02-21T06:43:52;15.65;;;9.80;;
15996;SDS011;8103;51.340;12.326;2023-02-21T06:46:23;15.75;;;9.57;;
15996;SDS011;8103;51.340;12.326;2023-02-21T06:48:52;15.50;;;11.23;;
15996;SDS011;8103;51.340;12.326;2023-02-21T06:51:20;17.85;;;12.10;;
15996;SDS011;8103;51.340;12.326;2023-02-21T06:53:54;15.73;;;10.75;;
15996;SDS011;8103;51.340;12.326;2023-02-21T06:56:22;17.02;;;11.10;;
15996;SDS011;8103;51.340;12.326;2023-02-21T06:58:49;12.13;;;8.82;;
15996;SDS011;8103;51.340;12.326;2023-02-21T07:01:16;14.32;;;10.57;;
15996;SDS011;8103;51.340;12.326;2023-02-21T07:03:43;16.67;;;11.95;;
15996;SDS011;8103;51.340;12.326;2023-02-21T07:06:11;14.88;;;10.20;;
15996;SDS011;8103;51.340;12.326;2023-02-21T07:08:38;14.82;;;10.18;;
15996;SDS011;8103;51.340;12.326;2023-02-21T07:11:05;18.63;;;10.50;;
15996;SDS011;8103;51.340;12.326;2023-02-21T07:13:33;13.25;;;10.05;;
15996;SDS011;8103;51.340;12.326;2023-02-21T07:16:00;13.40;;;9.27;;
15996;SDS011;8103;51.340;12.326;2023-02-21T07:18:28;14.98;;;9.55;;
15996;SDS011;8103;51.340;12.326;2023-02-21T07:20:55;20.73;;;10.93;;
15996;SDS011;8103;51.340;12.326;2023-02-21T07:23:22;15.32;;;10.10;;
15996;SDS011;8103;51.340;12.326;2023-02-21T07:25:49;17.15;;;10.88;;
15996;SDS011;8103;51.340;12.326;2023-02-21T07:28:15;19.17;;;9.95;;
15996;SDS011;8103;51.340;12.326;2023-02-21T07:30:43;12.95;;;9.82;;
15996;SDS011;8103;51.340;12.326;2023-02-21T07:33:10;13.98;;;9.80;;
15996;SDS011;8103;51.340;12.326;2023-02-21T07:35:37;12.05;;;9.15;;
15996;SDS011;8103;51.340;12.326;2023-02-21T07:38:04;15.27;;;10.35;;
15996;SDS011;8103;51.340;12.326;2023-02-21T07:40:30;15.40;;;10.93;;
15996;SDS011;8103;51.340;12.326;2023-02-21T07:42:57;13.43;;;9.85;;
15996;SDS011;8103;51.340;12.326;2023-02-21T07:45:24;13.55;;;8.43;;
15996;SDS011;8103;51.340;12.326;2023-02-21T07:47:50;13.55;;;8.88;;
15996;SDS011;8103;51.340;12.326;2023-02-21T07:50:18;14.02;;;9.57;;
15996;SDS011;8103;51.340;12.326;2023-02-21T07:52:45;11.15;;;8.55;;
15996;SDS011;8103;51.340;12.326;2023-02-21T07:55:12;12.80;;;8.85;;
15996;SDS011;8103;51.340;12.326;2023-02-21T07:57:39;9.80;;;7.53;;
15996;SDS011;8103;51.340;12.326;2023-02-21T08:00:06;13.88;;;9.30;;
15996;SDS011;8103;51.340;12.326;2023-02-21T08:02:34;12.70;;;8.20;;
15996;SDS011;8103;51.340;12.326;2023-02-21T08:05:00;16.40;;;9.73;;
15996;SDS011;8103;51.340;12.326;2023-02-21T08:07:28;10.55;;;8.43;;
15996;SDS011;8103;51.340;12.326;2023-02-21T08:09:55;12.77;;;9.60;;
15996;SDS011;8103;51.340;12.326;2023-02-21T08:12:21;19.55;;;9.80;;
15996;SDS011;8103;51.340;12.326;2023-02-21T08:14:48;11.23;;;7.97;;
15996;SDS011;8103;51.340;12.326;2023-02-21T08:17:15;13.93;;;9.32;;
15996;SDS011;8103;51.340;12.326;2023-02-21T08:19:42;11.27;;;8.85;;
15996;SDS011;8103;51.340;12.326;2023-02-21T08:22:09;15.07;;;10.10;;
15996;SDS011;8103;51.340;12.326;2023-02-21T08:24:36;13.23;;;9.60;;
15996;SDS011;8103;51.340;12.326;2023-02-21T08:27:03;17.15;;;9.85;;
15996;SDS011;8103;51.340;12.326;2023-02-21T08:29:29;14.63;;;9.77;;
15996;SDS011;8103;51.340;12.326;2023-02-21T08:31:56;12.88;;;10.02;;
15996;SDS011;8103;51.340;12.326;2023-02-21T08:34:23;15.27;;;10.32;;
15996;SDS011;8103;51.340;12.326;2023-02-21T08:36:50;14.07;;;10.10;;
15996;SDS011;8103;51.340;12.326;2023-02-21T08:39:16;17.67;;;10.38;;
15996;SDS011;8103;51.340;12.326;2023-02-21T08:41:44;14.05;;;10.93;;
15996;SDS011;8103;51.340;12.326;2023-02-21T08:44:14;15.57;;;9.90;;
15996;SDS011;8103;51.340;12.326;2023-02-21T08:46:43;12.60;;;9.05;;
15996;SDS011;8103;51.340;12.326;2023-02-21T08:49:10;14.90;;;9.90;;
15996;SDS011;8103;51.340;12.326;2023-02-21T08:51:37;13.15;;;9.80;;
15996;SDS011;8103;51.340;12.326;2023-02-21T08:54:05;10.75;;;8.93;;
15996;SDS011;8103;51.340;12.326;2023-02-21T08:56:32;15.70;;;10.48;;
15996;SDS011;8103;51.340;12.326;2023-02-21T08:58:59;13.63;;;9.63;;
15996;SDS011;8103;51.340;12.326;2023-02-21T09:01:31;17.75;;;10.07;;
15996;SDS011;8103;51.340;12.326;2023-02-21T09:04:01;15.07;;;10.48;;
15996;SDS011;8103;51.340;12.326;2023-02-21T09:06:31;14.75;;;10.55;;
15996;SDS011;8103;51.340;12.326;2023-02-21T09:08:58;15.02;;;10.40;;
15996;SDS011;8103;51.340;12.326;2023-02-21T09:11:25;17.70;;;11.00;;
15996;SDS011;8103;51.340;12.326;2023-02-21T09:13:51;15.23;;;10.50;;
15996;SDS011;8103;51.340;12.326;2023-02-21T09:16:20;17.85;;;11.80;;
15996;SDS011;8103;51.340;12.326;2023-02-21T09:18:55;16.05;;;11.00;;
15996;SDS011;8103;51.340;12.326;2023-02-21T09:21:24;15.48;;;11.25;;
15996;SDS011;8103;51.340;12.326;2023-02-21T09:23:52;16.92;;;12.38;;
15996;SDS011;8103;51.340;12.326;2023-02-21T09:26:21;18.55;;;11.52;;
15996;SDS011;8103;51.340;12.326;2023-02-21T09:28:49;17.45;;;11.32;;
15996;SDS011;8103;51.340;12.326;2023-02-21T09:31:17;17.92;;;10.10;;
15996;SDS011;8103;51.340;12.326;2023-02-21T09:33:45;13.30;;;9.63;;
15996;SDS011;8103;51.340;12.326;2023-02-21T09:36:12;13.63;;;10.18;;
15996;SDS011;8103;51.340;12.326;2023-02-21T09:38:39;13.52;;;10.15;;
15996;SDS011;8103;51.340;12.326;2023-02-21T09:41:08;14.43;;;9.57;;
15996;SDS011;8103;51.340;12.326;2023-02-21T09:43:40;12.65;;;9.10;;
15996;SDS011;8103;51.340;12.326;2023-02-21T09:46:13;14.18;;;9.50;;
15996;SDS011;8103;51.340;12.326;2023-02-21T09:48:50;14.10;;;9.27;;
15996;SDS011;8103;51.340;12.326;2023-02-21T09:51:18;15.07;;;9.25;;
15996;SDS011;8103;51.340;12.326;2023-02-21T09:53:46;17.00;;;8.82;;
15996;SDS011;8103;51.340;12.326;2023-02-21T09:56:30;14.63;;;9.35;;
15996;SDS011;8103;51.340;12.326;2023-02-21T09:59:10;13.65;;;8.45;;
15996;SDS011;8103;51.340;12.326;2023-02-21T10:01:43;13.50;;;9.20;;
15996;SDS011;8103;51.340;12.326;2023-02-21T10:07:49;16.45;;;8.45;;
15996;SDS011;8103;51.340;12.326;2023-02-21T10:13:26;10.85;;;7.68;;
15996;SDS011;8103;51.340;12.326;2023-02-21T10:16:07;12.30;;;8.05;;
15996;SDS011;8103;51.340;12.326;2023-02-21T10:19:02;13.77;;;8.93;;
15996;SDS011;8103;51.340;12.326;2023-02-21T10:21:45;14.32;;;8.48;;
15996;SDS011;8103;51.340;12.326;2023-02-21T10:24:15;10.48;;;8.38;;
15996;SDS011;8103;51.340;12.326;2023-02-21T10:27:11;10.48;;;8.18;;
15996;SDS011;8103;51.340;12.326;2023-02-21T10:29:45;12.95;;;8.43;;
15996;SDS011;8103;51.340;12.326;2023-02-21T10:32:36;12.38;;;8.88;;
15996;SDS011;8103;51.340;12.326;2023-02-21T10:35:04;12.63;;;7.70;;
15996;SDS011;8103;51.340;12.326;2023-02-21T10:43:06;13.13;;;8.45;;
15996;SDS011;8103;51.340;12.326;2023-02-21T10:45:54;12.57;;;8.20;;
15996;SDS011;8103;51.340;12.326;2023-02-21T10:52:04;12.90;;;7.45;;
15996;SDS011;8103;51.340;12.326;2023-02-21T10:54:39;15.55;;;7.93;;
15996;SDS011;8103;51.340;12.326;2023-02-21T10:57:06;12.65;;;8.80;;
15996;SDS011;8103;51.340;12.326;2023-02-21T10:59:40;12.00;;;8.73;;
15996;SDS011;8103;51.340;12.326;2023-02-21T11:02:25;12.18;;;7.43;;
15996;SDS011;8103;51.340;12.326;2023-02-21T11:05:06;10.50;;;7.35;;
15996;SDS011;8103;51.340;12.326;2023-02-21T11:07:59;10.35;;;7.15;;
15996;SDS011;8103;51.340;12.326;2023-02-21T11:10:34;10.02;;;7.25;;
15996;SDS011;8103;51.340;12.326;2023-02-21T11:15:45;9.73;;;6.78;;
15996;SDS011;8103;51.340;12.326;2023-02-21T11:18:17;10.70;;;6.22;;
15996;SDS011;8103;51.340;12.326;2023-02-21T11:20:51;8.52;;;5.88;;
15996;SDS011;8103;51.340;12.326;2023-02-21T11:23:20;7.65;;;5.30;;
15996;SDS011;8103;51.340;12.326;2023-02-21T11:25:57;8.05;;;5.05;;
15996;SDS011;8103;51.340;12.326;2023-02-21T11:28:39;7.18;;;4.80;;
15996;SDS011;8103;51.340;12.326;2023-02-21T11:33:55;7.38;;;5.13;;
15996;SDS011;8103;51.340;12.326;2023-02-21T11:36:36;8.93;;;6.13;;
15996;SDS011;8103;51.340;12.326;2023-02-21T11:39:15;7.40;;;5.13;;
15996;SDS011;8103;51.340;12.326;2023-02-21T11:41:49;11.68;;;5.53;;
15996;SDS011;8103;51.340;12.326;2023-02-21T11:44:32;7.88;;;4.70;;
15996;SDS011;8103;51.340;12.326;2023-02-21T11:47:20;7.30;;;4.30;;
15996;SDS011;8103;51.340;12.326;2023-02-21T11:49:56;7.78;;;5.07;;
15996;SDS011;8103;51.340;12.326;2023-02-21T11:52:38;11.80;;;5.65;;
15996;SDS011;8103;51.340;12.326;2023-02-21T11:55:16;6.75;;;4.72;;
15996;SDS011;8103;51.340;12.326;2023-02-21T11:57:53;6.45;;;4.95;;
15996;SDS011;8103;51.340;12.326;2023-02-21T12:00:51;6.07;;;3.95;;
15996;SDS011;8103;51.340;12.326;2023-02-21T12:09:26;6.35;;;4.40;;
15996;SDS011;8103;51.340;12.326;2023-02-21T12:12:32;8.85;;;4.40;;
15996;SDS011;8103;51.340;12.326;2023-02-21T12:15:15;6.05;;;4.35;;
15996;SDS011;8103;51.340;12.326;2023-02-21T12:24:00;5.55;;;4.63;;
15996;SDS011;8103;51.340;12.326;2023-02-21T12:27:13;8.57;;;5.30;;
15996;SDS011;8103;51.340;12.326;2023-02-21T12:30:16;7.30;;;4.65;;
15996;SDS011;8103;51.340;12.326;2023-02-21T12:36:43;7.10;;;4.82;;
15996;SDS011;8103;51.340;12.326;2023-02-21T12:42:17;8.70;;;5.97;;
15996;SDS011;8103;51.340;12.326;2023-02-21T12:45:27;9.85;;;7.15;;
15996;SDS011;8103;51.340;12.326;2023-02-21T12:48:56;10.40;;;6.22;;
15996;SDS011;8103;51.340;12.326;2023-02-21T12:51:43;11.50;;;7.68;;
15996;SDS011;8103;51.340;12.326;2023-02-21T12:54:33;10.75;;;6.32;;
15996;SDS011;8103;51.340;12.326;2023-02-21T12:57:24;15.20;;;8.38;;
15996;SDS011;8103;51.340;12.326;2023-02-21T13:00:25;8.38;;;6.13;;
15996;SDS011;8103;51.340;12.326;2023-02-21T13:06:25;9.18;;;6.63;;
15996;SDS011;8103;51.340;12.326;2023-02-21T13:14:56;9.20;;;5.95;;
15996;SDS011;8103;51.340;12.326;2023-02-21T13:17:41;11.90;;;6.28;;
15996;SDS011;8103;51.340;12.326;2023-02-21T13:20:14;12.38;;;6.75;;
15996;SDS011;8103;51.340;12.326;2023-02-21T13:22:46;9.63;;;5.78;;
15996;SDS011;8103;51.340;12.326;2023-02-21T13:26:02;10.60;;;5.93;;
15996;SDS011;8103;51.340;12.326;2023-02-21T13:28:58;9.02;;;5.75;;
15996;SDS011;8103;51.340;12.326;2023-02-21T13:31:31;16.60;;;6.78;;
15996;SDS011;8103;51.340;12.326;2023-02-21T13:34:05;10.02;;;6.78;;
15996;SDS011;8103;51.340;12.326;2023-02-21T13:39:19;9.77;;;5.68;;
15996;SDS011;8103;51.340;12.326;2023-02-21T13:42:16;23.13;;;7.45;;
15996;SDS011;8103;51.340;12.326;2023-02-21T13:44:48;10.55;;;6.00;;
15996;SDS011;8103;51.340;12.326;2023-02-21T14:01:16;9.90;;;5.13;;
15996;SDS011;8103;51.340;12.326;2023-02-21T14:03:53;9.50;;;5.28;;
15996;SDS011;8103;51.340;12.326;2023-02-21T14:06:29;8.60;;;6.15;;
15996;SDS011;8103;51.340;12.326;2023-02-21T14:09:12;8.77;;;6.07;;
15996;SDS011;8103;51.340;12.326;2023-02-21T14:11:47;8.40;;;5.32;;
15996;SDS011;8103;51.340;12.326;2023-02-21T14:14:22;8.73;;;5.75;;
15996;SDS011;8103;51.340;12.326;2023-02-21T14:16:58;12.77;;;6.28;;
15996;SDS011;8103;51.340;12.326;2023-02-21T14:22:43;6.45;;;4.82;;
15996;SDS011;8103;51.340;12.326;2023-02-21T14:25:06;9.38;;;5.10;;
15996;SDS011;8103;51.340;12.326;2023-02-21T14:27:50;7.57;;;6.25;;
15996;SDS011;8103;51.340;12.326;2023-02-21T14:30:23;8.13;;;5.28;;
15996;SDS011;8103;51.340;12.326;2023-02-21T14:33:07;9.75;;;5.57;;
15996;SDS011;8103;51.340;12.326;2023-02-21T14:35:54;6.13;;;4.72;;
15996;SDS011;8103;51.340;12.326;2023-02-21T14:38:34;9.20;;;5.43;;
15996;SDS011;8103;51.340;12.326;2023-02-21T14:43:55;5.00;;;3.80;;
15996;SDS011;8103;51.340;12.326;2023-02-21T14:49:58;7.88;;;4.75;;
15996;SDS011;8103;51.340;12.326;2023-02-21T14:53:20;7.05;;;3.28;;
15996;SDS011;8103;51.340;12.326;2023-02-21T14:56:34;6.45;;;2.85;;
15996;SDS011;8103;51.340;12.326;2023-02-21T14:59:48;5.93;;;3.00;;
15996;SDS011;8103;51.340;12.326;2023-02-21T15:08:16;4.38;;;3.08;;
15996;SDS011;8103;51.340;12.326;2023-02-21T15:10:50;6.40;;;3.25;;
15996;SDS011;8103;51.340;12.326;2023-02-21T15:13:27;6.53;;;2.75;;
15996;SDS011;8103;51.340;12.326;2023-02-21T15:16:02;4.15;;;2.65;;
15996;SDS011;8103;51.340;12.326;2023-02-21T15:18:36;3.38;;;2.65;;
15996;SDS011;8103;51.340;12.326;2023-02-21T15:21:07;4.15;;;3.15;;
15996;SDS011;8103;51.340;12.326;2023-02-21T15:23:44;5.47;;;3.38;;
15996;SDS011;8103;51.340;12.326;2023-02-21T15:29:05;3.50;;;2.17;;
15996;SDS011;8103;51.340;12.326;2023-02-21T15:31:51;4.55;;;2.70;;
15996;SDS011;8103;51.340;12.326;2023-02-21T15:34:26;3.33;;;2.67;;
15996;SDS011;8103;51.340;12.326;2023-02-21T15:37:15;2.92;;;2.22;;
15996;SDS011;8103;51.340;12.326;2023-02-21T15:39:51;4.55;;;3.22;;
15996;SDS011;8103;51.340;12.326;2023-02-21T15:42:40;3.75;;;2.60;;
15996;SDS011;8103;51.340;12.326;2023-02-21T15:45:32;5.80;;;2.55;;
15996;SDS011;8103;51.340;12.326;2023-02-21T15:48:16;2.92;;;2.33;;
15996;SDS011;8103;51.340;12.326;2023-02-21T15:54:50;2.95;;;2.50;;
15996;SDS011;8103;51.340;12.326;2023-02-21T15:57:41;3.22;;;1.75;;
15996;SDS011;8103;51.340;12.326;2023-02-21T16:08:56;3.58;;;2.47;;
15996;SDS011;8103;51.340;12.326;2023-02-21T16:11:25;3.50;;;2.20;;
15996;SDS011;8103;51.340;12.326;2023-02-21T16:14:18;5.20;;;1.98;;
15996;SDS011;8103;51.340;12.326;2023-02-21T16:16:58;4.25;;;2.38;;
15996;SDS011;8103;51.340;12.326;2023-02-21T16:20:01;3.85;;;2.10;;
15996;SDS011;8103;51.340;12.326;2023-02-21T16:22:42;4.85;;;2.47;;
15996;SDS011;8103;51.340;12.326;2023-02-21T16:25:56;6.05;;;3.22;;
15996;SDS011;8103;51.340;12.326;2023-02-21T16:28:35;2.42;;;2.10;;
15996;SDS011;8103;51.340;12.326;2023-02-21T16:31:04;3.67;;;3.20;;
15996;SDS011;8103;51.340;12.326;2023-02-21T16:33:35;5.38;;;3.85;;
15996;SDS011;8103;51.340;12.326;2023-02-21T16:36:06;8.02;;;3.65;;
15996;SDS011;8103;51.340;12.326;2023-02-21T16:38:41;8.20;;;3.95;;
15996;SDS011;8103;51.340;12.326;2023-02-21T16:41:17;5.80;;;3.72;;
15996;SDS011;8103;51.340;12.326;2023-02-21T16:43:44;5.70;;;3.80;;
15996;SDS011;8103;51.340;12.326;2023-02-21T16:46:12;4.43;;;3.22;;
15996;SDS011;8103;51.340;12.326;2023-02-21T16:48:40;3.47;;;2.72;;
15996;SDS011;8103;51.340;12.326;2023-02-21T16:51:09;6.00;;;3.90;;
15996;SDS011;8103;51.340;12.326;2023-02-21T16:53:43;6.78;;;4.10;;
15996;SDS011;8103;51.340;12.326;2023-02-21T16:56:14;5.35;;;3.63;;
15996;SDS011;8103;51.340;12.326;2023-02-21T16:58:42;6.78;;;4.30;;
15996;SDS011;8103;51.340;12.326;2023-02-21T17:01:27;7.13;;;4.40;;
15996;SDS011;8103;51.340;12.326;2023-02-21T17:07:58;8.10;;;4.90;;
15996;SDS011;8103;51.340;12.326;2023-02-21T17:10:25;11.55;;;7.88;;
15996;SDS011;8103;51.340;12.326;2023-02-21T17:12:52;10.43;;;6.50;;
15996;SDS011;8103;51.340;12.326;2023-02-21T17:15:19;5.00;;;3.97;;
15996;SDS011;8103;51.340;12.326;2023-02-21T17:17:46;10.60;;;4.30;;
15996;SDS011;8103;51.340;12.326;2023-02-21T17:20:18;7.93;;;3.97;;
15996;SDS011;8103;51.340;12.326;2023-02-21T17:22:47;4.93;;;4.07;;
15996;SDS011;8103;51.340;12.326;2023-02-21T17:25:20;5.93;;;4.00;;
15996;SDS011;8103;51.340;12.326;2023-02-21T17:27:48;9.13;;;5.57;;
15996;SDS011;8103;51.340;12.326;2023-02-21T17:30:17;5.15;;;4.47;;
15996;SDS011;8103;51.340;12.326;2023-02-21T17:32:48;8.13;;;4.82;;
15996;SDS011;8103;51.340;12.326;2023-02-21T17:35:16;7.65;;;4.57;;
15996;SDS011;8103;51.340;12.326;2023-02-21T17:37:45;6.72;;;4.35;;
15996;SDS011;8103;51.340;12.326;2023-02-21T17:40:15;5.70;;;3.75;;
15996;SDS011;8103;51.340;12.326;2023-02-21T17:42:45;5.50;;;4.03;;
15996;SDS011;8103;51.340;12.326;2023-02-21T17:45:12;11.93;;;5.10;;
15996;SDS011;8103;51.340;12.326;2023-02-21T17:47:43;5.43;;;4.10;;
15996;SDS011;8103;51.340;12.326;2023-02-21T17:50:10;5.82;;;4.10;;
15996;SDS011;8103;51.340;12.326;2023-02-21T17:52:40;6.80;;;5.35;;